Terminal Aerodrome Forecast
Issued by NWS

Home | Current Version | Previous Version | Text Only | Print | Product List | Glossary On
Versions: 1 2 3 4 5 6 7 8 9 10 11 12 13 14
000
FTAK31 PANC 241121
TAFADQ
TAF
PADQ 241121Z 2412/2512 29022G40KT P6SM SKC
     FM241400 32030G50KT P6SM SKC
     FM241800 32025G40KT P6SM SCT030=

USA.gov is the U.S. government's official web portal to all federal, state and local government web resources and services.